Time;durP1;ratioP1;P1;durP2;ratioP2;P2;SDS_P1;SDS_P2;PMS_P1;PMS_P2;Temp;Humidity;BMP_temperature;BMP_pressure;BME280_temperature;BME280_humidity;BME280_pressure;Samples;Min_cycle;Max_cycle;Signal;HPM_P1;HPM_P2
2023/04/08 00:00:16;;;;;;;8.40;4.00;;;;;;;;;;4992757;28;20446;-67
2023/04/08 00:02:42;;;;;;;6.97;3.38;;;;;;;;;;4993054;28;20026;-68
2023/04/08 00:05:08;;;;;;;6.97;3.35;;;;;;;;;;4992808;28;20035;-68
2023/04/08 00:07:33;;;;;;;7.85;3.70;;;;;;;;;;4992361;28;20030;-69
2023/04/08 00:09:59;;;;;;;6.03;3.10;;;;;;;;;;4992319;28;20426;-69
2023/04/08 00:12:25;;;;;;;8.52;3.40;;;;;;;;;;4992438;28;20050;-69
2023/04/08 00:14:50;;;;;;;5.82;3.15;;;;;;;;;;4992524;28;20034;-68
2023/04/08 00:17:16;;;;;;;8.32;3.17;;;;;;;;;;4992334;28;20022;-68
2023/04/08 00:19:42;;;;;;;7.57;3.38;;;;;;;;;;4992625;28;20118;-67
2023/04/08 00:22:07;;;;;;;8.60;3.45;;;;;;;;;;4992173;28;20114;-67
2023/04/08 00:24:33;;;;;;;7.93;3.38;;;;;;;;;;4992257;28;20053;-67
2023/04/08 00:26:58;;;;;;;8.40;3.40;;;;;;;;;;4992091;28;20031;-66
2023/04/08 00:29:24;;;;;;;8.80;3.70;;;;;;;;;;4992182;28;20077;-66
2023/04/08 00:31:50;;;;;;;7.80;3.60;;;;;;;;;;4992100;28;20096;-68
2023/04/08 00:34:16;;;;;;;6.80;3.70;;;;;;;;;;4992099;28;20019;-66
2023/04/08 00:36:41;;;;;;;7.82;3.83;;;;;;;;;;4992144;28;20020;-66
2023/04/08 00:39:07;;;;;;;7.88;4.07;;;;;;;;;;4992150;28;20066;-66
2023/04/08 00:41:34;;;;;;;8.40;4.20;;;;;;;;;;4992036;28;20027;-66
2023/04/08 00:44:00;;;;;;;7.55;3.63;;;;;;;;;;4991832;28;20027;-66
2023/04/08 00:46:26;;;;;;;11.60;4.30;;;;;;;;;;4991961;28;20022;-68
2023/04/08 00:48:51;;;;;;;10.10;3.78;;;;;;;;;;4991375;28;20027;-70
2023/04/08 00:51:18;;;;;;;13.13;4.20;;;;;;;;;;4991753;28;20026;-69
2023/04/08 00:53:43;;;;;;;8.82;3.85;;;;;;;;;;4991669;28;20026;-66
2023/04/08 00:56:09;;;;;;;7.85;3.90;;;;;;;;;;4991985;28;20037;-66
2023/04/08 00:58:35;;;;;;;8.85;3.78;;;;;;;;;;4991533;28;20038;-69
2023/04/08 01:01:13;;;;;;;8.20;3.97;;;;;;;;;;4991573;28;20022;-68
2023/04/08 01:03:56;;;;;;;12.02;4.10;;;;;;;;;;4991444;28;20022;-66
2023/04/08 01:06:41;;;;;;;8.75;3.88;;;;;;;;;;4991356;28;20019;-66
2023/04/08 01:09:08;;;;;;;9.50;3.70;;;;;;;;;;4991475;28;20027;-66
2023/04/08 01:11:37;;;;;;;8.95;3.47;;;;;;;;;;4991448;28;20104;-69
2023/04/08 01:14:08;;;;;;;9.13;3.30;;;;;;;;;;4991264;28;20022;-69
2023/04/08 01:16:37;;;;;;;7.80;3.30;;;;;;;;;;4991476;28;20026;-70
2023/04/08 01:19:05;;;;;;;7.38;2.83;;;;;;;;;;4973740;28;20033;-68
2023/04/08 01:21:30;;;;;;;8.25;2.90;;;;;;;;;;4990992;28;20029;-68
2023/04/08 01:24:09;;;;;;;6.03;2.58;;;;;;;;;;4990931;28;20042;-69
2023/04/08 01:26:36;;;;;;;5.68;2.65;;;;;;;;;;4991322;28;20047;-68
2023/04/08 01:29:02;;;;;;;4.93;2.63;;;;;;;;;;4991149;28;20030;-68
2023/04/08 01:31:29;;;;;;;5.85;2.80;;;;;;;;;;4991093;28;20026;-68
2023/04/08 01:33:56;;;;;;;4.95;2.38;;;;;;;;;;4990829;28;20455;-67
2023/04/08 01:36:25;;;;;;;8.10;2.65;;;;;;;;;;4973497;28;20046;-68
2023/04/08 01:38:50;;;;;;;6.65;2.55;;;;;;;;;;4990706;28;20018;-69
2023/04/08 01:41:18;;;;;;;6.97;2.65;;;;;;;;;;4990847;28;20026;-68
2023/04/08 01:43:44;;;;;;;4.82;2.58;;;;;;;;;;4990842;28;20510;-68
2023/04/08 01:46:11;;;;;;;5.40;2.53;;;;;;;;;;4991141;28;20082;-68
2023/04/08 01:48:37;;;;;;;8.05;2.80;;;;;;;;;;4990728;28;20022;-69
2023/04/08 01:51:04;;;;;;;5.82;2.40;;;;;;;;;;4990620;28;20015;-68
2023/04/08 01:53:30;;;;;;;5.22;2.85;;;;;;;;;;4990529;28;20023;-68
2023/04/08 01:56:09;;;;;;;7.45;2.80;;;;;;;;;;4990724;28;20033;-68
2023/04/08 01:58:46;;;;;;;6.68;2.55;;;;;;;;;;4990619;28;20034;-68
2023/04/08 02:01:16;;;;;;;4.88;2.55;;;;;;;;;;4990266;28;20169;-68
2023/04/08 02:03:42;;;;;;;4.53;2.30;;;;;;;;;;4973150;28;20117;-68
2023/04/08 02:06:08;;;;;;;5.70;2.33;;;;;;;;;;4990705;28;20026;-67
2023/04/08 02:08:35;;;;;;;8.88;2.38;;;;;;;;;;4972971;28;20517;-68
2023/04/08 02:11:01;;;;;;;3.80;2.05;;;;;;;;;;4990597;28;20052;-68
2023/04/08 02:13:28;;;;;;;6.15;2.33;;;;;;;;;;4990496;28;20484;-67
2023/04/08 02:16:02;;;;;;;7.90;2.53;;;;;;;;;;4990522;28;20482;-67
2023/04/08 02:18:29;;;;;;;4.22;2.10;;;;;;;;;;4990510;28;20037;-66
2023/04/08 02:21:08;;;;;;;5.28;2.33;;;;;;;;;;4990365;28;20030;-67
2023/04/08 02:23:38;;;;;;;5.55;2.25;;;;;;;;;;4990321;28;20034;-68
2023/04/08 02:26:06;;;;;;;4.85;2.10;;;;;;;;;;4973105;28;20074;-69
2023/04/08 02:28:34;;;;;;;4.32;2.20;;;;;;;;;;4990278;28;20054;-67
2023/04/08 02:31:01;;;;;;;4.40;2.50;;;;;;;;;;4990153;28;20029;-68
2023/04/08 02:33:27;;;;;;;4.47;2.30;;;;;;;;;;4990249;28;20023;-69
2023/04/08 02:35:54;;;;;;;4.10;1.88;;;;;;;;;;4990140;28;20117;-68
2023/04/08 02:38:20;;;;;;;4.03;2.33;;;;;;;;;;4990346;28;20581;-68
2023/04/08 02:40:49;;;;;;;5.70;2.40;;;;;;;;;;4990424;28;20021;-68
2023/04/08 02:43:14;;;;;;;5.55;2.47;;;;;;;;;;4990138;28;20089;-67
2023/04/08 02:45:41;;;;;;;6.45;2.38;;;;;;;;;;4990060;28;20035;-68
2023/04/08 02:48:06;;;;;;;5.50;2.22;;;;;;;;;;4990458;28;20026;-67
2023/04/08 02:50:32;;;;;;;3.72;2.10;;;;;;;;;;4989961;28;20466;-68
2023/04/08 02:52:57;;;;;;;4.07;1.98;;;;;;;;;;4990075;28;20853;-68
2023/04/08 02:55:23;;;;;;;4.85;2.15;;;;;;;;;;4990056;28;20073;-68
2023/04/08 02:57:48;;;;;;;4.57;2.55;;;;;;;;;;4990440;28;20077;-68
2023/04/08 03:00:14;;;;;;;6.47;2.10;;;;;;;;;;4990020;28;20018;-67
2023/04/08 03:02:40;;;;;;;3.70;2.28;;;;;;;;;;4990041;28;20022;-68
2023/04/08 03:05:06;;;;;;;5.20;2.30;;;;;;;;;;4989942;28;20073;-68
2023/04/08 03:07:31;;;;;;;7.18;2.33;;;;;;;;;;4989845;28;20019;-69
2023/04/08 03:09:57;;;;;;;5.00;2.28;;;;;;;;;;4990016;28;20022;-69
2023/04/08 03:12:22;;;;;;;4.90;2.15;;;;;;;;;;4991019;28;20129;-69
2023/04/08 03:14:49;;;;;;;3.42;2.20;;;;;;;;;;4993639;28;20518;-68
2023/04/08 03:17:15;;;;;;;4.90;2.20;;;;;;;;;;4993711;28;20486;-68
2023/04/08 03:19:40;;;;;;;4.63;2.20;;;;;;;;;;4975943;28;20034;-68
2023/04/08 03:22:06;;;;;;;4.60;2.35;;;;;;;;;;4993329;28;20534;-67
2023/04/08 03:24:34;;;;;;;5.55;2.40;;;;;;;;;;4993039;28;20130;-68
2023/04/08 03:27:00;;;;;;;3.50;1.83;;;;;;;;;;4993492;28;20026;-69
2023/04/08 03:29:25;;;;;;;4.13;2.08;;;;;;;;;;4993300;28;20030;-70
2023/04/08 03:31:51;;;;;;;4.47;2.03;;;;;;;;;;4993302;28;20113;-68
2023/04/08 03:34:17;;;;;;;6.93;1.92;;;;;;;;;;4993191;28;20113;-68
2023/04/08 03:36:42;;;;;;;8.18;2.03;;;;;;;;;;4993329;28;20030;-71
2023/04/08 03:39:07;;;;;;;5.35;2.33;;;;;;;;;;4993213;28;20073;-70
2023/04/08 03:41:33;;;;;;;3.42;2.05;;;;;;;;;;4992732;28;20031;-70
2023/04/08 03:43:58;;;;;;;3.25;1.95;;;;;;;;;;4992955;28;20391;-70
2023/04/08 03:46:24;;;;;;;5.82;2.65;;;;;;;;;;4992929;28;20076;-69
2023/04/08 03:48:49;;;;;;;3.25;1.90;;;;;;;;;;4993172;28;20030;-69
2023/04/08 03:51:14;;;;;;;6.57;1.90;;;;;;;;;;4992750;28;20025;-69
2023/04/08 03:53:40;;;;;;;4.63;2.10;;;;;;;;;;4993012;28;20038;-68
2023/04/08 03:56:06;;;;;;;3.55;1.90;;;;;;;;;;4992817;28;20537;-68
2023/04/08 03:58:31;;;;;;;4.10;1.90;;;;;;;;;;4992822;28;20077;-68
2023/04/08 04:00:56;;;;;;;3.55;1.92;;;;;;;;;;4992525;28;20034;-68
2023/04/08 04:03:22;;;;;;;3.53;2.00;;;;;;;;;;4992768;28;20471;-69
2023/04/08 04:05:48;;;;;;;5.10;2.17;;;;;;;;;;4992652;28;20034;-68
2023/04/08 04:08:13;;;;;;;3.50;1.98;;;;;;;;;;4992828;28;20105;-68
2023/04/08 04:10:38;;;;;;;5.18;2.03;;;;;;;;;;4992508;28;20126;-68
2023/04/08 04:13:04;;;;;;;4.00;2.00;;;;;;;;;;4992533;28;20034;-68
2023/04/08 04:15:30;;;;;;;6.78;2.17;;;;;;;;;;4992437;28;20030;-68
2023/04/08 04:17:55;;;;;;;4.20;2.03;;;;;;;;;;4992698;28;20027;-68
2023/04/08 04:20:21;;;;;;;3.83;2.20;;;;;;;;;;4992235;28;20033;-69
2023/04/08 04:22:46;;;;;;;5.13;1.88;;;;;;;;;;4991767;28;20030;-67
2023/04/08 04:25:12;;;;;;;5.00;2.10;;;;;;;;;;4991989;28;20136;-68
2023/04/08 04:27:37;;;;;;;4.20;2.08;;;;;;;;;;4992531;28;20045;-68
2023/04/08 04:30:03;;;;;;;5.82;2.00;;;;;;;;;;4992443;28;20022;-68
2023/04/08 04:32:29;;;;;;;3.42;1.90;;;;;;;;;;4992101;28;20026;-67
2023/04/08 04:34:54;;;;;;;4.13;2.00;;;;;;;;;;4991996;28;20174;-68
2023/04/08 04:37:20;;;;;;;4.88;2.00;;;;;;;;;;4992168;28;20372;-68
2023/04/08 04:39:46;;;;;;;4.80;1.83;;;;;;;;;;4992189;28;20019;-68
2023/04/08 04:42:11;;;;;;;3.50;1.90;;;;;;;;;;4991867;28;20030;-68
2023/04/08 04:44:36;;;;;;;4.18;1.85;;;;;;;;;;4992037;28;20034;-68
2023/04/08 04:47:02;;;;;;;3.42;1.80;;;;;;;;;;4991883;28;20101;-68
2023/04/08 04:49:27;;;;;;;4.30;2.05;;;;;;;;;;4991978;28;20023;-67
2023/04/08 04:51:53;;;;;;;4.95;2.03;;;;;;;;;;4991496;28;20022;-69
2023/04/08 04:54:18;;;;;;;4.45;1.95;;;;;;;;;;4991554;28;20438;-68
2023/04/08 04:56:43;;;;;;;4.72;1.80;;;;;;;;;;4992071;28;20053;-68
2023/04/08 04:59:09;;;;;;;3.35;1.80;;;;;;;;;;4991853;28;20019;-70
2023/04/08 05:01:34;;;;;;;4.10;2.00;;;;;;;;;;4991601;28;20057;-68
2023/04/08 05:04:00;;;;;;;4.10;1.90;;;;;;;;;;4974387;28;20045;-69
2023/04/08 05:06:26;;;;;;;4.88;1.83;;;;;;;;;;4991321;28;20065;-67
2023/04/08 05:08:52;;;;;;;4.47;2.15;;;;;;;;;;4991638;28;20023;-67
2023/04/08 05:11:17;;;;;;;5.15;2.22;;;;;;;;;;4991147;28;20026;-67
2023/04/08 05:13:43;;;;;;;3.33;2.13;;;;;;;;;;4991385;28;20515;-68
2023/04/08 05:16:09;;;;;;;5.10;2.30;;;;;;;;;;4991404;28;20116;-69
2023/04/08 05:18:34;;;;;;;6.00;1.98;;;;;;;;;;4991575;28;20114;-69
2023/04/08 05:21:00;;;;;;;6.10;2.35;;;;;;;;;;4991223;28;20457;-68
2023/04/08 05:23:25;;;;;;;5.93;2.33;;;;;;;;;;4973652;28;20474;-68
2023/04/08 05:25:51;;;;;;;3.53;1.80;;;;;;;;;;4990794;28;20061;-68
2023/04/08 05:28:16;;;;;;;12.07;2.10;;;;;;;;;;4991178;28;20058;-69
2023/04/08 05:30:41;;;;;;;5.22;2.05;;;;;;;;;;4991021;28;20108;-70
2023/04/08 05:33:07;;;;;;;3.05;2.00;;;;;;;;;;4973651;28;20065;-69
2023/04/08 05:35:32;;;;;;;3.10;1.50;;;;;;;;;;4990306;28;20150;-68
2023/04/08 05:37:58;;;;;;;3.47;1.90;;;;;;;;;;4991169;28;20030;-68
2023/04/08 05:40:23;;;;;;;4.18;1.98;;;;;;;;;;4990969;28;20026;-68
2023/04/08 05:42:48;;;;;;;3.30;1.75;;;;;;;;;;4990665;28;20038;-68
2023/04/08 05:45:15;;;;;;;6.68;1.90;;;;;;;;;;4990731;28;20030;-68
2023/04/08 05:47:40;;;;;;;3.80;1.85;;;;;;;;;;4990767;28;20038;-67
2023/04/08 05:50:06;;;;;;;8.23;2.38;;;;;;;;;;4990985;28;20026;-68
2023/04/08 05:52:31;;;;;;;4.28;1.90;;;;;;;;;;4990450;28;20120;-67
2023/04/08 05:54:57;;;;;;;5.15;2.10;;;;;;;;;;4990823;28;20065;-67
2023/04/08 05:57:22;;;;;;;6.20;2.40;;;;;;;;;;4990619;28;20038;-67
2023/04/08 05:59:47;;;;;;;5.60;2.10;;;;;;;;;;4990855;28;20060;-68
2023/04/08 06:02:13;;;;;;;5.30;2.08;;;;;;;;;;4990448;28;20030;-67
2023/04/08 06:04:38;;;;;;;5.55;2.13;;;;;;;;;;4990541;28;20034;-68
2023/04/08 06:07:04;;;;;;;5.18;1.90;;;;;;;;;;4990451;28;20073;-68
2023/04/08 06:09:34;;;;;;;7.60;1.90;;;;;;;;;;4990681;28;20026;-67
2023/04/08 06:11:59;;;;;;;4.90;2.20;;;;;;;;;;4990539;28;20034;-68
2023/04/08 06:14:24;;;;;;;3.97;2.22;;;;;;;;;;4990342;28;20018;-67
2023/04/08 06:16:52;;;;;;;3.50;2.00;;;;;;;;;;4990509;28;20030;-68
2023/04/08 06:19:17;;;;;;;4.28;2.38;;;;;;;;;;4990656;28;20026;-67
2023/04/08 06:21:42;;;;;;;6.43;2.22;;;;;;;;;;4990085;28;20158;-67
2023/04/08 06:24:08;;;;;;;4.57;2.00;;;;;;;;;;4990107;28;20526;-67
2023/04/08 06:26:33;;;;;;;5.30;2.22;;;;;;;;;;4990500;28;20058;-67
2023/04/08 06:28:59;;;;;;;3.88;2.20;;;;;;;;;;4990664;28;20030;-67
2023/04/08 06:31:24;;;;;;;4.35;2.30;;;;;;;;;;4990395;28;20096;-68
2023/04/08 06:33:51;;;;;;;3.95;2.20;;;;;;;;;;4990244;28;20037;-67
2023/04/08 06:36:16;;;;;;;3.92;2.15;;;;;;;;;;4990020;28;20035;-67
2023/04/08 06:38:42;;;;;;;4.43;2.15;;;;;;;;;;4990276;28;20018;-67
2023/04/08 06:41:07;;;;;;;4.55;1.90;;;;;;;;;;4990271;28;20050;-67
2023/04/08 06:43:34;;;;;;;4.68;2.20;;;;;;;;;;4989961;28;20522;-68
2023/04/08 06:46:00;;;;;;;5.75;2.35;;;;;;;;;;4991041;28;20537;-67
2023/04/08 06:48:28;;;;;;;5.38;3.00;;;;;;;;;;4992917;28;20157;-68
2023/04/08 06:50:57;;;;;;;6.55;3.20;;;;;;;;;;4994259;28;20159;-68
2023/04/08 06:53:23;;;;;;;7.07;3.40;;;;;;;;;;4993553;28;20106;-67
2023/04/08 06:55:49;;;;;;;5.45;3.17;;;;;;;;;;4993831;28;20032;-67
2023/04/08 06:58:14;;;;;;;3.80;2.40;;;;;;;;;;4993780;28;20031;-66
2023/04/08 07:00:41;;;;;;;5.82;2.30;;;;;;;;;;4994144;28;20026;-67
2023/04/08 07:03:06;;;;;;;5.35;2.08;;;;;;;;;;4993681;28;20023;-66
2023/04/08 07:05:34;;;;;;;8.10;2.10;;;;;;;;;;4993995;28;20491;-67
2023/04/08 07:07:59;;;;;;;5.15;2.13;;;;;;;;;;4993631;28;20031;-66
2023/04/08 07:10:25;;;;;;;5.45;1.92;;;;;;;;;;4993614;28;20037;-68
2023/04/08 07:12:51;;;;;;;3.53;1.83;;;;;;;;;;4993382;28;20022;-69
2023/04/08 07:15:16;;;;;;;3.90;1.92;;;;;;;;;;4993287;28;20113;-69
2023/04/08 07:17:42;;;;;;;5.93;1.90;;;;;;;;;;4993296;28;20154;-69
2023/04/08 07:20:08;;;;;;;4.97;1.98;;;;;;;;;;4993619;28;20049;-70
2023/04/08 07:22:34;;;;;;;3.63;2.28;;;;;;;;;;4993177;28;20026;-69
2023/04/08 07:24:59;;;;;;;6.30;1.85;;;;;;;;;;4993106;28;20173;-69
2023/04/08 07:27:24;;;;;;;4.25;2.13;;;;;;;;;;4993193;28;20109;-68
2023/04/08 07:29:53;;;;;;;3.78;2.40;;;;;;;;;;4993286;28;20034;-68
2023/04/08 07:32:19;;;;;;;4.55;2.15;;;;;;;;;;4993173;28;20030;-68
2023/04/08 07:34:45;;;;;;;6.72;2.22;;;;;;;;;;4993103;28;20045;-69
2023/04/08 07:37:10;;;;;;;5.63;2.03;;;;;;;;;;4992935;28;20022;-69
2023/04/08 07:39:36;;;;;;;4.10;1.95;;;;;;;;;;4993429;28;20029;-70
2023/04/08 07:42:01;;;;;;;5.78;2.10;;;;;;;;;;4993171;28;20537;-69
2023/04/08 07:44:27;;;;;;;3.90;1.83;;;;;;;;;;4992951;28;20041;-68
2023/04/08 07:46:52;;;;;;;5.05;1.98;;;;;;;;;;4992997;28;20042;-69
2023/04/08 07:49:17;;;;;;;5.45;2.10;;;;;;;;;;4992947;28;20034;-68
2023/04/08 07:51:43;;;;;;;3.17;1.60;;;;;;;;;;4992859;28;20026;-68
2023/04/08 07:54:11;;;;;;;3.22;1.88;;;;;;;;;;4992693;28;20029;-70
2023/04/08 07:56:39;;;;;;;5.30;1.98;;;;;;;;;;4993194;28;20142;-68
2023/04/08 07:59:05;;;;;;;4.97;1.88;;;;;;;;;;4992120;28;20109;-67
2023/04/08 08:01:33;;;;;;;4.72;1.70;;;;;;;;;;4992999;28;20034;-67
2023/04/08 08:03:59;;;;;;;5.07;1.83;;;;;;;;;;4992578;28;20050;-69
2023/04/08 08:06:26;;;;;;;3.83;1.80;;;;;;;;;;4992698;28;20054;-70
2023/04/08 08:08:52;;;;;;;4.70;1.90;;;;;;;;;;4992433;28;20033;-68
2023/04/08 08:11:17;;;;;;;3.33;1.60;;;;;;;;;;4992782;28;20026;-68
2023/04/08 08:13:43;;;;;;;5.07;1.70;;;;;;;;;;4992386;28;20116;-68
2023/04/08 08:16:10;;;;;;;2.67;1.42;;;;;;;;;;4992843;28;20038;-68
2023/04/08 08:18:36;;;;;;;5.80;1.75;;;;;;;;;;4992313;28;20458;-68
2023/04/08 08:21:02;;;;;;;3.83;1.80;;;;;;;;;;4992414;28;20030;-68
2023/04/08 08:23:27;;;;;;;4.75;1.35;;;;;;;;;;4992178;28;20057;-68
2023/04/08 08:26:05;;;;;;;2.97;1.58;;;;;;;;;;4971263;28;20047;-68
2023/04/08 08:28:31;;;;;;;2.72;1.30;;;;;;;;;;4972765;28;20031;-69
2023/04/08 08:30:57;;;;;;;4.20;1.80;;;;;;;;;;4973169;28;20030;-69
2023/04/08 08:33:23;;;;;;;3.55;1.50;;;;;;;;;;4972553;28;20082;-68
2023/04/08 08:35:49;;;;;;;3.45;1.50;;;;;;;;;;4971348;28;20030;-67
2023/04/08 08:38:16;;;;;;;4.10;1.30;;;;;;;;;;4972501;28;20027;-67
2023/04/08 08:40:42;;;;;;;2.53;1.10;;;;;;;;;;4972650;28;20073;-68
2023/04/08 08:43:08;;;;;;;3.28;1.35;;;;;;;;;;4972316;28;20031;-68
2023/04/08 08:45:37;;;;;;;3.67;1.40;;;;;;;;;;4972122;28;20030;-68
2023/04/08 08:48:03;;;;;;;4.00;1.50;;;;;;;;;;4972470;28;20026;-67
2023/04/08 08:50:28;;;;;;;2.75;1.50;;;;;;;;;;4972625;28;20074;-68
2023/04/08 08:52:54;;;;;;;3.72;1.50;;;;;;;;;;4972251;28;20030;-69
2023/04/08 08:55:20;;;;;;;3.33;1.45;;;;;;;;;;4972311;28;20023;-68
2023/04/08 08:57:49;;;;;;;5.18;1.60;;;;;;;;;;4971986;28;20508;-68
2023/04/08 09:00:15;;;;;;;2.38;1.40;;;;;;;;;;4972316;28;20491;-68
2023/04/08 09:02:40;;;;;;;6.95;2.50;;;;;;;;;;4970888;28;20109;-68
2023/04/08 09:05:06;;;;;;;4.25;1.40;;;;;;;;;;4971971;28;20037;-69
2023/04/08 09:07:35;;;;;;;3.70;1.30;;;;;;;;;;4972052;28;20502;-68
2023/04/08 09:10:01;;;;;;;2.92;1.40;;;;;;;;;;4972226;28;20035;-68
2023/04/08 09:12:27;;;;;;;3.92;1.50;;;;;;;;;;4972562;28;20110;-70
2023/04/08 09:15:07;;;;;;;4.85;1.70;;;;;;;;;;4972190;28;20038;-68
2023/04/08 09:17:42;;;;;;;3.28;1.63;;;;;;;;;;4972465;28;20097;-67
2023/04/08 09:20:11;;;;;;;8.45;1.80;;;;;;;;;;4972339;28;20034;-67
2023/04/08 09:22:55;;;;;;;4.72;1.35;;;;;;;;;;4972273;28;20086;-68
2023/04/08 09:25:23;;;;;;;6.13;1.73;;;;;;;;;;4987070;28;20142;-69
2023/04/08 09:27:48;;;;;;;3.72;1.55;;;;;;;;;;4991655;28;20030;-68
2023/04/08 09:30:16;;;;;;;3.85;1.50;;;;;;;;;;4991489;28;20225;-68
2023/04/08 09:32:50;;;;;;;2.42;1.10;;;;;;;;;;4991472;28;20034;-67
2023/04/08 09:35:17;;;;;;;4.57;1.30;;;;;;;;;;4991120;28;20038;-67
2023/04/08 09:37:42;;;;;;;2.08;1.02;;;;;;;;;;4991766;28;20030;-68
2023/04/08 09:40:08;;;;;;;3.33;1.20;;;;;;;;;;4991237;28;20057;-68
2023/04/08 09:42:38;;;;;;;3.70;1.40;;;;;;;;;;4991537;28;20386;-67
2023/04/08 09:45:06;;;;;;;5.97;1.30;;;;;;;;;;4991266;28;20109;-67
2023/04/08 09:47:43;;;;;;;3.63;1.30;;;;;;;;;;4991372;28;20068;-67
2023/04/08 09:50:08;;;;;;;2.92;1.23;;;;;;;;;;4991204;28;20080;-67
2023/04/08 09:52:45;;;;;;;3.22;1.30;;;;;;;;;;4991066;28;20026;-67
2023/04/08 09:55:20;;;;;;;2.45;1.30;;;;;;;;;;4990853;28;20037;-67
2023/04/08 09:57:54;;;;;;;3.63;1.10;;;;;;;;;;4991363;28;20030;-66
2023/04/08 10:00:31;;;;;;;2.67;1.10;;;;;;;;;;4990690;28;20126;-67
2023/04/08 10:03:12;;;;;;;3.80;1.00;;;;;;;;;;4991054;28;20054;-67
2023/04/08 10:05:40;;;;;;;3.67;1.00;;;;;;;;;;4990457;28;20041;-69
2023/04/08 10:08:06;;;;;;;1.42;0.90;;;;;;;;;;4990578;28;20022;-67
2023/04/08 10:10:35;;;;;;;2.90;1.10;;;;;;;;;;4990435;28;20034;-67
2023/04/08 10:13:02;;;;;;;2.13;1.08;;;;;;;;;;4990699;28;20038;-68
2023/04/08 10:15:28;;;;;;;2.78;1.02;;;;;;;;;;4990174;28;20035;-67
2023/04/08 10:18:19;;;;;;;3.40;1.02;;;;;;;;;;4990678;28;20054;-68
2023/04/08 10:20:46;;;;;;;4.10;1.33;;;;;;;;;;4991223;28;20034;-69
2023/04/08 10:23:14;;;;;;;2.10;0.90;;;;;;;;;;4997036;28;20028;-67
2023/04/08 10:25:44;;;;;;;2.17;1.13;;;;;;;;;;4996293;28;20050;-66
2023/04/08 10:28:18;;;;;;;3.30;1.13;;;;;;;;;;4996800;28;20579;-67
2023/04/08 10:30:47;;;;;;;2.60;1.13;;;;;;;;;;4996669;28;20097;-66
2023/04/08 10:33:15;;;;;;;2.55;0.80;;;;;;;;;;4996930;28;20029;-66
2023/04/08 10:35:46;;;;;;;2.83;0.90;;;;;;;;;;4979126;28;20026;-67
2023/04/08 10:38:13;;;;;;;3.10;1.00;;;;;;;;;;4996978;28;20041;-66
2023/04/08 10:40:41;;;;;;;2.25;1.35;;;;;;;;;;4996614;28;20030;-67
2023/04/08 10:43:07;;;;;;;3.13;1.13;;;;;;;;;;4996964;28;20037;-66
2023/04/08 10:45:33;;;;;;;2.55;1.00;;;;;;;;;;4996289;28;20033;-67
2023/04/08 10:48:18;;;;;;;3.58;1.00;;;;;;;;;;4996684;28;20027;-66
2023/04/08 10:50:54;;;;;;;3.38;1.17;;;;;;;;;;4996677;28;20771;-68
2023/04/08 10:53:27;;;;;;;3.67;1.00;;;;;;;;;;4996681;28;20426;-68
2023/04/08 10:55:53;;;;;;;2.70;1.00;;;;;;;;;;4996610;28;20027;-66
2023/04/08 10:58:18;;;;;;;2.70;1.05;;;;;;;;;;4996696;28;20030;-66
2023/04/08 11:00:43;;;;;;;3.03;1.10;;;;;;;;;;4996438;28;20058;-66
2023/04/08 11:03:10;;;;;;;3.55;1.10;;;;;;;;;;4996639;28;20606;-65
2023/04/08 11:05:37;;;;;;;2.35;1.02;;;;;;;;;;4996237;28;20033;-67
2023/04/08 11:08:06;;;;;;;3.28;1.27;;;;;;;;;;4996551;28;20042;-66
2023/04/08 11:10:37;;;;;;;4.68;1.25;;;;;;;;;;4996321;28;20504;-67
2023/04/08 11:13:06;;;;;;;4.35;1.45;;;;;;;;;;4996829;28;20022;-66
2023/04/08 11:15:32;;;;;;;2.38;1.30;;;;;;;;;;4996060;28;20042;-66
2023/04/08 11:17:59;;;;;;;2.88;1.13;;;;;;;;;;4996513;28;20422;-66
2023/04/08 11:20:24;;;;;;;4.78;1.10;;;;;;;;;;4996315;28;20034;-66
2023/04/08 11:22:50;;;;;;;3.47;1.30;;;;;;;;;;4996279;28;20026;-67
2023/04/08 11:25:17;;;;;;;2.40;1.00;;;;;;;;;;4995919;28;20055;-67
2023/04/08 11:27:42;;;;;;;4.43;0.90;;;;;;;;;;4996577;28;20042;-67
2023/04/08 11:30:09;;;;;;;1.67;0.90;;;;;;;;;;4996792;28;20367;-66
2023/04/08 11:32:35;;;;;;;2.20;0.90;;;;;;;;;;4994436;28;20030;-66
2023/04/08 11:35:03;;;;;;;3.33;0.65;;;;;;;;;;4992729;28;20034;-66
2023/04/08 11:37:40;;;;;;;2.22;0.82;;;;;;;;;;4993180;28;20509;-67
2023/04/08 11:40:07;;;;;;;4.25;1.88;;;;;;;;;;4993012;28;20069;-67
2023/04/08 11:42:33;;;;;;;3.45;1.30;;;;;;;;;;4993348;28;20022;-68
2023/04/08 11:44:58;;;;;;;3.63;1.40;;;;;;;;;;4993025;28;20022;-67
2023/04/08 11:47:33;;;;;;;3.42;1.25;;;;;;;;;;4992952;28;20385;-67
2023/04/08 11:50:00;;;;;;;3.25;1.30;;;;;;;;;;4975482;28;20023;-67
2023/04/08 11:52:49;;;;;;;3.30;1.20;;;;;;;;;;4992866;28;20022;-68
2023/04/08 11:55:29;;;;;;;4.75;1.45;;;;;;;;;;4992469;28;20101;-67
2023/04/08 11:57:56;;;;;;;5.40;1.27;;;;;;;;;;4992994;28;20034;-67
2023/04/08 12:00:22;;;;;;;3.88;1.15;;;;;;;;;;4992580;28;20125;-68
2023/04/08 12:02:48;;;;;;;4.68;1.00;;;;;;;;;;4993010;28;20157;-68
2023/04/08 12:05:14;;;;;;;3.47;1.30;;;;;;;;;;4992456;28;20121;-66
2023/04/08 12:07:41;;;;;;;3.10;1.20;;;;;;;;;;4992648;28;20408;-66
2023/04/08 12:10:07;;;;;;;5.90;1.30;;;;;;;;;;4992398;28;20061;-66
2023/04/08 12:12:32;;;;;;;3.35;1.40;;;;;;;;;;4992713;28;20087;-67
2023/04/08 12:14:58;;;;;;;3.92;1.10;;;;;;;;;;4992309;28;20023;-66
2023/04/08 12:17:23;;;;;;;5.68;1.33;;;;;;;;;;4992332;28;20401;-67
2023/04/08 12:19:48;;;;;;;2.60;1.10;;;;;;;;;;4992423;28;20019;-68
2023/04/08 12:22:15;;;;;;;4.43;1.30;;;;;;;;;;4992108;28;20093;-67
2023/04/08 12:24:40;;;;;;;3.85;1.13;;;;;;;;;;4992243;28;20064;-67
2023/04/08 12:27:05;;;;;;;2.30;1.00;;;;;;;;;;4992023;28;20117;-67
2023/04/08 12:29:31;;;;;;;3.63;1.00;;;;;;;;;;4992261;28;20049;-68
2023/04/08 12:31:57;;;;;;;4.55;1.10;;;;;;;;;;4992005;28;20488;-67
2023/04/08 12:34:22;;;;;;;2.75;1.00;;;;;;;;;;4991997;28;20033;-68
2023/04/08 12:36:48;;;;;;;2.03;0.88;;;;;;;;;;4991850;28;20023;-68
2023/04/08 12:39:14;;;;;;;2.45;1.00;;;;;;;;;;4992053;28;20498;-68
2023/04/08 12:41:39;;;;;;;4.40;0.95;;;;;;;;;;4991948;28;20033;-67
2023/04/08 12:44:05;;;;;;;3.47;0.90;;;;;;;;;;4991942;28;20029;-67
2023/04/08 12:46:31;;;;;;;3.58;1.10;;;;;;;;;;4991404;28;20030;-67
2023/04/08 12:48:56;;;;;;;3.03;0.90;;;;;;;;;;4991845;28;20026;-67
2023/04/08 12:51:22;;;;;;;2.20;0.98;;;;;;;;;;4991532;28;20171;-67
2023/04/08 12:53:47;;;;;;;2.75;0.90;;;;;;;;;;4991823;28;20026;-67
2023/04/08 12:56:13;;;;;;;1.95;0.90;;;;;;;;;;4991426;28;20069;-66
2023/04/08 12:58:38;;;;;;;3.47;1.00;;;;;;;;;;4974222;28;20027;-67
2023/04/08 13:01:03;;;;;;;2.72;0.82;;;;;;;;;;4991645;28;20594;-69
2023/04/08 13:03:30;;;;;;;1.33;0.65;;;;;;;;;;4991831;28;20022;-66
2023/04/08 13:05:57;;;;;;;2.88;0.77;;;;;;;;;;4991154;28;20025;-70
2023/04/08 13:08:23;;;;;;;2.85;0.73;;;;;;;;;;4991536;28;20030;-68
2023/04/08 13:10:49;;;;;;;2.60;0.80;;;;;;;;;;4991421;28;20026;-69
2023/04/08 13:13:14;;;;;;;1.30;0.70;;;;;;;;;;4991510;28;20036;-68
2023/04/08 13:15:39;;;;;;;1.95;0.80;;;;;;;;;;4991259;28;20041;-67
2023/04/08 13:18:05;;;;;;;1.27;0.63;;;;;;;;;;4991348;28;20025;-67
2023/04/08 13:20:30;;;;;;;1.20;0.60;;;;;;;;;;4991282;28;20054;-67
2023/04/08 13:22:56;;;;;;;2.25;0.77;;;;;;;;;;4990958;28;20028;-67
2023/04/08 13:25:21;;;;;;;1.73;0.77;;;;;;;;;;4991015;28;20453;-67
2023/04/08 13:27:47;;;;;;;1.08;0.60;;;;;;;;;;4991078;28;20022;-72
2023/04/08 13:30:13;;;;;;;1.92;0.70;;;;;;;;;;4991279;28;20014;-71
2023/04/08 13:32:38;;;;;;;2.35;0.88;;;;;;;;;;4991331;28;20026;-67
2023/04/08 13:35:04;;;;;;;2.38;0.70;;;;;;;;;;4991313;28;20105;-67
2023/04/08 13:37:29;;;;;;;2.00;0.70;;;;;;;;;;4990595;28;20405;-67
2023/04/08 13:39:56;;;;;;;2.15;0.73;;;;;;;;;;4991082;28;20084;-68
2023/04/08 13:42:21;;;;;;;1.50;0.80;;;;;;;;;;4990740;28;20096;-68
2023/04/08 13:44:47;;;;;;;1.50;0.60;;;;;;;;;;4990999;28;20037;-66
2023/04/08 13:47:12;;;;;;;2.63;0.70;;;;;;;;;;4990422;28;20027;-68
2023/04/08 13:49:38;;;;;;;1.08;0.60;;;;;;;;;;4991083;28;20033;-68
2023/04/08 13:52:03;;;;;;;3.70;0.80;;;;;;;;;;4990720;28;20058;-67
2023/04/08 13:54:28;;;;;;;1.95;0.70;;;;;;;;;;4973290;28;20033;-67
2023/04/08 13:56:54;;;;;;;2.45;0.70;;;;;;;;;;4989733;28;20027;-68
2023/04/08 13:59:20;;;;;;;1.95;0.80;;;;;;;;;;4990736;28;20026;-67
2023/04/08 14:01:45;;;;;;;2.13;0.70;;;;;;;;;;4990442;28;20027;-66
2023/04/08 14:04:10;;;;;;;1.30;0.60;;;;;;;;;;4990647;28;20100;-68
2023/04/08 14:06:36;;;;;;;2.80;0.80;;;;;;;;;;4990355;28;20026;-66
2023/04/08 14:09:02;;;;;;;2.35;0.70;;;;;;;;;;4990860;28;20036;-67
2023/04/08 14:11:27;;;;;;;3.17;0.77;;;;;;;;;;4990636;28;20034;-67
2023/04/08 14:13:52;;;;;;;0.85;0.52;;;;;;;;;;4990956;28;20029;-66
2023/04/08 14:16:18;;;;;;;2.72;0.70;;;;;;;;;;4990062;28;20100;-67
2023/04/08 14:18:44;;;;;;;1.75;0.52;;;;;;;;;;4990488;28;20038;-66
2023/04/08 14:21:09;;;;;;;4.05;0.68;;;;;;;;;;4990429;28;20517;-67
2023/04/08 14:23:35;;;;;;;1.75;0.73;;;;;;;;;;4990174;28;20647;-66
2023/04/08 14:26:01;;;;;;;2.72;0.68;;;;;;;;;;4990703;28;20041;-67
2023/04/08 14:28:26;;;;;;;1.42;0.60;;;;;;;;;;4990154;28;20026;-67
2023/04/08 14:30:51;;;;;;;0.65;0.50;;;;;;;;;;4990480;28;20030;-67
2023/04/08 14:33:17;;;;;;;1.00;0.60;;;;;;;;;;4990250;28;20101;-67
2023/04/08 14:35:43;;;;;;;1.75;0.68;;;;;;;;;;4990318;28;20508;-67
2023/04/08 14:38:08;;;;;;;0.98;0.65;;;;;;;;;;4989890;28;20034;-67
2023/04/08 14:40:34;;;;;;;1.85;0.50;;;;;;;;;;4990520;28;20023;-68